sensor_id;sensor_type;location;lat;lon;timestamp;pressure;altitude;pressure_sealevel;temperature;humidity
2036;BME280;23642;42.658;23.350;2024-02-16T00:01:16;49953.94;;;-146.31;99.92
2036;BME280;23642;42.658;23.350;2024-02-16T00:03:43;49945.69;;;-146.31;100.00
2036;BME280;23642;42.658;23.350;2024-02-16T00:06:11;49923.00;;;-146.31;100.00
2036;BME280;23642;42.658;23.350;2024-02-16T00:08:41;49916.81;;;-146.31;100.00
2036;BME280;23642;42.658;23.350;2024-02-16T00:11:09;49869.38;;;-146.31;100.00
2036;BME280;23642;42.658;23.350;2024-02-16T00:13:36;49844.63;;;-146.31;100.00
2036;BME280;23642;42.658;23.350;2024-02-16T00:16:04;49844.63;;;-146.31;100.00
2036;BME280;23642;42.658;23.350;2024-02-16T00:18:30;49801.34;;;-146.31;100.00
2036;BME280;23642;42.658;23.350;2024-02-16T00:21:04;49755.97;;;-146.31;100.00
2036;BME280;23642;42.658;23.350;2024-02-16T00:23:34;49731.22;;;-146.31;100.00
2036;BME280;23642;42.658;23.350;2024-02-16T00:26:01;49714.72;;;-146.31;100.00
2036;BME280;23642;42.658;23.350;2024-02-16T00:28:34;49755.97;;;-146.31;100.00
2036;BME280;23642;42.658;23.350;2024-02-16T00:31:00;49739.47;;;-146.31;100.00
2036;BME280;23642;42.658;23.350;2024-02-16T00:33:27;49780.72;;;-146.31;100.00
2036;BME280;23642;42.658;23.350;2024-02-16T00:35:54;49741.53;;;-146.31;100.00
2036;BME280;23642;42.658;23.350;2024-02-16T00:38:21;49764.22;;;-146.31;100.00
2036;BME280;23642;42.658;23.350;2024-02-16T00:40:49;49745.66;;;-146.31;100.00
2036;BME280;23642;42.658;23.350;2024-02-16T00:43:19;49774.53;;;-146.31;99.60
2036;BME280;23642;42.658;23.350;2024-02-16T00:45:47;49817.84;;;-146.31;98.90
2036;BME280;23642;42.658;23.350;2024-02-16T00:48:15;49821.97;;;-146.31;98.69
2036;BME280;23642;42.658;23.350;2024-02-16T00:50:42;49824.03;;;-146.31;98.60
2036;BME280;23642;42.658;23.350;2024-02-16T00:53:09;49842.56;;;-146.31;98.14
2036;BME280;23642;42.658;23.350;2024-02-16T00:55:35;49828.13;;;-146.31;97.83
2036;BME280;23642;42.658;23.350;2024-02-16T00:58:03;49844.63;;;-146.31;97.90
2036;BME280;23642;42.658;23.350;2024-02-16T01:00:31;49861.13;;;-146.31;98.24
2036;BME280;23642;42.658;23.350;2024-02-16T01:02:59;49830.19;;;-146.31;98.41
2036;BME280;23642;42.658;23.350;2024-02-16T01:05:26;49867.31;;;-146.31;99.13
2036;BME280;23642;42.658;23.350;2024-02-16T01:07:53;49834.31;;;-146.31;100.00
2036;BME280;23642;42.658;23.350;2024-02-16T01:10:20;49834.31;;;-146.31;100.00
2036;BME280;23642;42.658;23.350;2024-02-16T01:12:47;49799.28;;;-146.31;100.00
2036;BME280;23642;42.658;23.350;2024-02-16T01:15:14;49791.03;;;-146.31;100.00
2036;BME280;23642;42.658;23.350;2024-02-16T01:17:41;49780.72;;;-146.31;100.00
2036;BME280;23642;42.658;23.350;2024-02-16T01:20:10;49735.34;;;-146.31;100.00
2036;BME280;23642;42.658;23.350;2024-02-16T01:22:38;49690.00;;;-146.31;100.00
2036;BME280;23642;42.658;23.350;2024-02-16T01:25:06;49685.88;;;-146.31;100.00
2036;BME280;23642;42.658;23.350;2024-02-16T01:27:34;49644.63;;;-146.31;100.00
2036;BME280;23642;42.658;23.350;2024-02-16T01:30:02;49582.78;;;-146.31;100.00
2036;BME280;23642;42.658;23.350;2024-02-16T01:32:29;49595.13;;;-146.31;100.00
2036;BME280;23642;42.658;23.350;2024-02-16T01:34:56;49558.03;;;-146.31;100.00
2036;BME280;23642;42.658;23.350;2024-02-16T01:37:25;49518.84;;;-146.31;100.00
2036;BME280;23642;42.658;23.350;2024-02-16T01:39:51;49483.81;;;-146.31;100.00
2036;BME280;23642;42.658;23.350;2024-02-16T01:42:18;49459.06;;;-146.31;100.00
2036;BME280;23642;42.658;23.350;2024-02-16T01:44:45;49417.81;;;-146.31;100.00
2036;BME280;23642;42.658;23.350;2024-02-16T01:47:13;49345.66;;;-146.31;100.00
2036;BME280;23642;42.658;23.350;2024-02-16T01:49:46;49306.50;;;-146.31;100.00
2036;BME280;23642;42.658;23.350;2024-02-16T01:52:13;49201.34;;;-146.31;100.00
2036;BME280;23642;42.658;23.350;2024-02-16T01:54:42;49125.06;;;-146.31;100.00
2036;BME280;23642;42.658;23.350;2024-02-16T01:57:09;49077.66;;;-146.31;100.00
2036;BME280;23642;42.658;23.350;2024-02-16T01:59:38;49022.00;;;-146.31;100.00
2036;BME280;23642;42.658;23.350;2024-02-16T02:02:05;48962.19;;;-146.31;100.00
2036;BME280;23642;42.658;23.350;2024-02-16T02:04:32;48902.41;;;-146.31;100.00
2036;BME280;23642;42.658;23.350;2024-02-16T02:06:59;48871.50;;;-146.31;100.00
2036;BME280;23642;42.658;23.350;2024-02-16T02:09:26;48807.59;;;-146.31;100.00
2036;BME280;23642;42.658;23.350;2024-02-16T02:11:55;48749.88;;;-146.31;100.00
2036;BME280;23642;42.658;23.350;2024-02-16T02:14:22;48712.78;;;-146.31;100.00
2036;BME280;23642;42.658;23.350;2024-02-16T02:16:51;48657.13;;;-146.31;100.00
2036;BME280;23642;42.658;23.350;2024-02-16T02:19:26;48599.41;;;-146.31;100.00
2036;BME280;23642;42.658;23.350;2024-02-16T02:21:53;48572.59;;;-146.31;100.00
2036;BME280;23642;42.658;23.350;2024-02-16T02:24:21;48576.72;;;-146.31;100.00
2036;BME280;23642;42.658;23.350;2024-02-16T02:26:48;48539.63;;;-146.31;100.00
2036;BME280;23642;42.658;23.350;2024-02-16T02:29:15;48531.38;;;-146.31;100.00
2036;BME280;23642;42.658;23.350;2024-02-16T02:31:41;48529.31;;;-146.31;100.00
2036;BME280;23642;42.658;23.350;2024-02-16T02:34:09;48547.88;;;-146.31;100.00
2036;BME280;23642;42.658;23.350;2024-02-16T02:36:36;48564.34;;;-146.31;100.00
2036;BME280;23642;42.658;23.350;2024-02-16T02:39:03;48587.03;;;-146.31;100.00
2036;BME280;23642;42.658;23.350;2024-02-16T02:41:37;48564.34;;;-146.31;100.00
2036;BME280;23642;42.658;23.350;2024-02-16T02:44:05;48580.84;;;-146.31;100.00
2036;BME280;23642;42.658;23.350;2024-02-16T02:46:32;48580.84;;;-146.31;100.00
2036;BME280;23642;42.658;23.350;2024-02-16T02:48:59;48523.13;;;-146.31;100.00
2036;BME280;23642;42.658;23.350;2024-02-16T02:51:26;48492.22;;;-146.31;100.00
2036;BME280;23642;42.658;23.350;2024-02-16T02:53:53;48434.50;;;-146.31;100.00
2036;BME280;23642;42.658;23.350;2024-02-16T02:56:20;48436.56;;;-146.31;100.00
2036;BME280;23642;42.658;23.350;2024-02-16T02:58:49;48389.16;;;-146.31;100.00
2036;BME280;23642;42.658;23.350;2024-02-16T03:01:15;48387.09;;;-146.31;100.00
2036;BME280;23642;42.658;23.350;2024-02-16T03:03:45;48354.13;;;-146.31;100.00
2036;BME280;23642;42.658;23.350;2024-02-16T03:06:16;48376.78;;;-146.31;100.00
2036;BME280;23642;42.658;23.350;2024-02-16T03:08:43;48397.41;;;-146.31;100.00
2036;BME280;23642;42.658;23.350;2024-02-16T03:11:10;48397.41;;;-146.31;100.00
2036;BME280;23642;42.658;23.350;2024-02-16T03:13:37;48382.97;;;-146.31;100.00
2036;BME280;23642;42.658;23.350;2024-02-16T03:16:05;48350.00;;;-146.31;100.00
2036;BME280;23642;42.658;23.350;2024-02-16T03:18:34;48366.47;;;-146.31;100.00
2036;BME280;23642;42.658;23.350;2024-02-16T03:21:02;48310.84;;;-146.31;100.00
2036;BME280;23642;42.658;23.350;2024-02-16T03:23:29;48308.78;;;-146.31;100.00
2036;BME280;23642;42.658;23.350;2024-02-16T03:26:00;48246.94;;;-146.31;100.00
2036;BME280;23642;42.658;23.350;2024-02-16T03:28:27;48222.22;;;-146.31;100.00
2036;BME280;23642;42.658;23.350;2024-02-16T03:30:54;48174.81;;;-146.31;100.00
2036;BME280;23642;42.658;23.350;2024-02-16T03:33:22;48152.13;;;-146.31;100.00
2036;BME280;23642;42.658;23.350;2024-02-16T03:35:49;48125.34;;;-146.31;100.00
2036;BME280;23642;42.658;23.350;2024-02-16T03:38:15;48115.03;;;-146.31;100.00
2036;BME280;23642;42.658;23.350;2024-02-16T03:40:42;48100.63;;;-146.31;100.00
2036;BME280;23642;42.658;23.350;2024-02-16T03:43:09;48092.38;;;-146.31;100.00
2036;BME280;23642;42.658;23.350;2024-02-16T03:45:37;48080.00;;;-146.31;100.00
2036;BME280;23642;42.658;23.350;2024-02-16T03:48:08;48061.44;;;-146.31;100.00
2036;BME280;23642;42.658;23.350;2024-02-16T03:50:39;48022.28;;;-146.31;100.00
2036;BME280;23642;42.658;23.350;2024-02-16T03:53:06;48044.97;;;-146.31;100.00
2036;BME280;23642;42.658;23.350;2024-02-16T03:55:33;48032.59;;;-146.31;100.00
2036;BME280;23642;42.658;23.350;2024-02-16T03:58:02;48028.47;;;-146.31;100.00
2036;BME280;23642;42.658;23.350;2024-02-16T04:00:29;48001.69;;;-146.31;100.00
2036;BME280;23642;42.658;23.350;2024-02-16T04:02:57;47995.50;;;-146.31;100.00
2036;BME280;23642;42.658;23.350;2024-02-16T04:05:24;48009.94;;;-146.31;100.00
2036;BME280;23642;42.658;23.350;2024-02-16T04:07:57;47995.50;;;-146.31;100.00
2036;BME280;23642;42.658;23.350;2024-02-16T04:10:27;48014.06;;;-146.31;100.00
2036;BME280;23642;42.658;23.350;2024-02-16T04:12:54;47937.81;;;-146.31;100.00
2036;BME280;23642;42.658;23.350;2024-02-16T04:15:21;47929.56;;;-146.31;100.00
2036;BME280;23642;42.658;23.350;2024-02-16T04:17:48;47952.22;;;-146.31;100.00
2036;BME280;23642;42.658;23.350;2024-02-16T04:20:17;47958.41;;;-146.31;100.00
2036;BME280;23642;42.658;23.350;2024-02-16T04:22:44;47950.16;;;-146.31;100.00
2036;BME280;23642;42.658;23.350;2024-02-16T04:25:12;47937.81;;;-146.31;100.00
2036;BME280;23642;42.658;23.350;2024-02-16T04:27:39;47906.88;;;-146.31;100.00
2036;BME280;23642;42.658;23.350;2024-02-16T04:30:07;47906.88;;;-146.31;100.00
2036;BME280;23642;42.658;23.350;2024-02-16T04:32:35;47878.03;;;-146.31;100.00
2036;BME280;23642;42.658;23.350;2024-02-16T04:35:03;47826.50;;;-146.31;100.00
2036;BME280;23642;42.658;23.350;2024-02-16T04:37:30;47830.63;;;-146.31;100.00
2036;BME280;23642;42.658;23.350;2024-02-16T04:39:57;47760.56;;;-146.31;100.00
2036;BME280;23642;42.658;23.350;2024-02-16T04:42:27;47663.72;;;-146.31;100.00
2036;BME280;23642;42.658;23.350;2024-02-16T04:44:54;47579.22;;;-146.31;100.00
2036;BME280;23642;42.658;23.350;2024-02-16T04:47:21;47521.53;;;-146.31;100.00
2036;BME280;23642;42.658;23.350;2024-02-16T04:49:48;47472.06;;;-146.31;100.00
2036;BME280;23642;42.658;23.350;2024-02-16T04:52:15;47414.38;;;-146.31;100.00
2036;BME280;23642;42.658;23.350;2024-02-16T04:54:42;47344.31;;;-146.31;100.00
2036;BME280;23642;42.658;23.350;2024-02-16T04:57:09;47319.59;;;-146.31;100.00
2036;BME280;23642;42.658;23.350;2024-02-16T04:59:37;47266.03;;;-146.31;100.00
2036;BME280;23642;42.658;23.350;2024-02-16T05:02:04;47226.88;;;-146.31;100.00
2036;BME280;23642;42.658;23.350;2024-02-16T05:04:39;47167.13;;;-146.31;100.00
2036;BME280;23642;42.658;23.350;2024-02-16T05:07:05;47119.72;;;-146.31;100.00
2036;BME280;23642;42.658;23.350;2024-02-16T05:09:33;47029.09;;;-146.31;100.00
2036;BME280;23642;42.658;23.350;2024-02-16T05:12:01;47041.44;;;-146.31;100.00
2036;BME280;23642;42.658;23.350;2024-02-16T05:14:28;46965.22;;;-146.31;100.00
2036;BME280;23642;42.658;23.350;2024-02-16T05:16:56;46959.03;;;-146.31;100.00
2036;BME280;23642;42.658;23.350;2024-02-16T05:19:23;46981.69;;;-146.31;100.00
2036;BME280;23642;42.658;23.350;2024-02-16T05:21:50;46992.00;;;-146.31;100.00
2036;BME280;23642;42.658;23.350;2024-02-16T05:24:17;46989.94;;;-146.31;100.00
2036;BME280;23642;42.658;23.350;2024-02-16T05:26:44;46948.72;;;-146.31;100.00
2036;BME280;23642;42.658;23.350;2024-02-16T05:29:11;46899.28;;;-146.31;100.00
2036;BME280;23642;42.658;23.350;2024-02-16T05:31:38;46802.44;;;-146.31;100.00
2036;BME280;23642;42.658;23.350;2024-02-16T05:34:06;46713.88;;;-146.31;100.00
2036;BME280;23642;42.658;23.350;2024-02-16T05:36:33;46631.47;;;-146.31;100.00
2036;BME280;23642;42.658;23.350;2024-02-16T05:39:01;46594.38;;;-146.31;100.00
2036;BME280;23642;42.658;23.350;2024-02-16T05:41:45;46503.75;;;-146.31;100.00
2036;BME280;23642;42.658;23.350;2024-02-16T05:44:12;46431.66;;;-146.31;100.00
2036;BME280;23642;42.658;23.350;2024-02-16T05:46:39;46345.13;;;-146.31;100.00
2036;BME280;23642;42.658;23.350;2024-02-16T05:49:07;46295.69;;;-146.31;100.00
2036;BME280;23642;42.658;23.350;2024-02-16T05:51:36;46386.31;;;-146.31;100.00
2036;BME280;23642;42.658;23.350;2024-02-16T05:54:04;46462.53;;;-146.31;100.00
2036;BME280;23642;42.658;23.350;2024-02-16T05:56:31;46553.19;;;-146.31;100.00
2036;BME280;23642;42.658;23.350;2024-02-16T05:58:59;46757.13;;;-146.31;100.00
2036;BME280;23642;42.658;23.350;2024-02-16T06:01:43;46843.66;;;-146.31;100.00
2036;BME280;23642;42.658;23.350;2024-02-16T06:04:11;46874.56;;;-146.31;100.00
2036;BME280;23642;42.658;23.350;2024-02-16T06:06:38;46899.28;;;-146.31;100.00
2036;BME280;23642;42.658;23.350;2024-02-16T06:09:05;46868.38;;;-146.31;100.00
2036;BME280;23642;42.658;23.350;2024-02-16T06:11:33;46903.41;;;-146.31;100.00
2036;BME280;23642;42.658;23.350;2024-02-16T06:14:01;46907.53;;;-146.31;100.00
2036;BME280;23642;42.658;23.350;2024-02-16T06:16:29;47006.41;;;-146.31;100.00
2036;BME280;23642;42.658;23.350;2024-02-16T06:18:57;47177.44;;;-146.31;100.00
2036;BME280;23642;42.658;23.350;2024-02-16T06:21:25;47379.34;;;-146.31;100.00
2036;BME280;23642;42.658;23.350;2024-02-16T06:23:51;47599.84;;;-146.31;100.00
2036;BME280;23642;42.658;23.350;2024-02-16T06:26:18;47750.25;;;-146.31;100.00
2036;BME280;23642;42.658;23.350;2024-02-16T06:28:46;47807.97;;;-146.31;100.00
2036;BME280;23642;42.658;23.350;2024-02-16T06:31:14;47855.38;;;-146.31;100.00
2036;BME280;23642;42.658;23.350;2024-02-16T06:33:41;47919.25;;;-146.31;100.00
2036;BME280;23642;42.658;23.350;2024-02-16T06:36:08;47917.19;;;-146.31;100.00
2036;BME280;23642;42.658;23.350;2024-02-16T06:38:39;48063.50;;;-146.31;100.00
2036;BME280;23642;42.658;23.350;2024-02-16T06:41:06;48129.47;;;-146.31;100.00
2036;BME280;23642;42.658;23.350;2024-02-16T06:43:35;48121.22;;;-146.31;100.00
2036;BME280;23642;42.658;23.350;2024-02-16T06:46:03;48168.63;;;-146.31;100.00
2036;BME280;23642;42.658;23.350;2024-02-16T06:48:30;48199.53;;;-146.31;100.00
2036;BME280;23642;42.658;23.350;2024-02-16T06:50:57;48294.34;;;-146.31;100.00
2036;BME280;23642;42.658;23.350;2024-02-16T06:53:24;48382.97;;;-146.31;99.87
2036;BME280;23642;42.658;23.350;2024-02-16T06:55:52;48469.53;;;-146.31;98.57
2036;BME280;23642;42.658;23.350;2024-02-16T06:58:20;48531.38;;;-146.31;97.79
2036;BME280;23642;42.658;23.350;2024-02-16T07:00:47;48570.53;;;-146.31;97.83
2036;BME280;23642;42.658;23.350;2024-02-16T07:03:14;48636.50;;;-146.31;97.11
2036;BME280;23642;42.658;23.350;2024-02-16T07:05:41;48655.06;;;-146.31;97.91
2036;BME280;23642;42.658;23.350;2024-02-16T07:08:15;48677.72;;;-146.31;97.46
2036;BME280;23642;42.658;23.350;2024-02-16T07:10:44;48685.97;;;-146.31;96.52
2036;BME280;23642;42.658;23.350;2024-02-16T07:13:13;48815.84;;;-146.31;93.44
2036;BME280;23642;42.658;23.350;2024-02-16T07:15:40;48968.38;;;-146.31;91.50
2036;BME280;23642;42.658;23.350;2024-02-16T07:18:07;49112.69;;;-146.31;90.02
2036;BME280;23642;42.658;23.350;2024-02-16T07:20:35;49129.19;;;-146.31;89.15
2036;BME280;23642;42.658;23.350;2024-02-16T07:23:02;49211.66;;;-146.31;88.26
2036;BME280;23642;42.658;23.350;2024-02-16T07:25:29;49327.09;;;-146.31;86.82
2036;BME280;23642;42.658;23.350;2024-02-16T07:27:56;49376.59;;;-146.31;86.26
2036;BME280;23642;42.658;23.350;2024-02-16T07:30:24;49477.63;;;-146.31;84.74
2036;BME280;23642;42.658;23.350;2024-02-16T07:32:51;49535.34;;;-146.31;83.47
2036;BME280;23642;42.658;23.350;2024-02-16T07:35:19;49636.38;;;-146.31;82.99
2036;BME280;23642;42.658;23.350;2024-02-16T07:37:49;49665.25;;;-146.31;82.57
2036;BME280;23642;42.658;23.350;2024-02-16T07:40:19;49681.75;;;-146.31;81.58
2036;BME280;23642;42.658;23.350;2024-02-16T07:42:46;49727.09;;;-146.31;80.55
2036;BME280;23642;42.658;23.350;2024-02-16T07:45:15;49842.56;;;-146.31;78.97
2036;BME280;23642;42.658;23.350;2024-02-16T07:47:45;49904.44;;;-146.31;79.43
2036;BME280;23642;42.658;23.350;2024-02-16T07:50:13;49908.56;;;-146.31;78.45
2036;BME280;23642;42.658;23.350;2024-02-16T07:52:42;49951.88;;;-146.31;77.30
2036;BME280;23642;42.658;23.350;2024-02-16T07:55:09;49974.53;;;-146.31;77.46
2036;BME280;23642;42.658;23.350;2024-02-16T07:57:40;49970.44;;;-146.31;76.87
2036;BME280;23642;42.658;23.350;2024-02-16T08:00:14;50003.41;;;-146.31;77.55
2036;BME280;23642;42.658;23.350;2024-02-16T08:02:44;50032.28;;;-146.31;76.49
2036;BME280;23642;42.658;23.350;2024-02-16T08:05:11;50044.66;;;-146.31;75.85
2036;BME280;23642;42.658;23.350;2024-02-16T08:07:38;50061.16;;;-146.31;75.35
2036;BME280;23642;42.658;23.350;2024-02-16T08:10:07;50092.09;;;-146.31;75.45
2036;BME280;23642;42.658;23.350;2024-02-16T08:12:33;50149.84;;;-146.31;76.41
2036;BME280;23642;42.658;23.350;2024-02-16T08:15:01;50114.78;;;-146.31;76.98
2036;BME280;23642;42.658;23.350;2024-02-16T08:17:29;50083.84;;;-146.31;76.56
2036;BME280;23642;42.658;23.350;2024-02-16T08:19:57;50123.03;;;-146.31;76.98
2036;BME280;23642;42.658;23.350;2024-02-16T08:22:24;50143.66;;;-146.31;76.15
2036;BME280;23642;42.658;23.350;2024-02-16T08:24:51;50114.78;;;-146.31;75.42
2036;BME280;23642;42.658;23.350;2024-02-16T08:27:18;50170.44;;;-146.31;73.00
2036;BME280;23642;42.658;23.350;2024-02-16T08:29:45;50189.00;;;-146.31;73.88
2036;BME280;23642;42.658;23.350;2024-02-16T08:32:12;50195.19;;;-146.31;72.67
2036;BME280;23642;42.658;23.350;2024-02-16T08:34:39;50217.88;;;-146.31;72.78
2036;BME280;23642;42.658;23.350;2024-02-16T08:37:07;50238.50;;;-146.31;71.75
2036;BME280;23642;42.658;23.350;2024-02-16T08:39:34;50203.44;;;-146.31;71.78
2036;BME280;23642;42.658;23.350;2024-02-16T08:42:01;50279.75;;;-146.31;70.97
2036;BME280;23642;42.658;23.350;2024-02-16T08:44:28;50294.19;;;-146.31;71.60
2036;BME280;23642;42.658;23.350;2024-02-16T08:46:55;50275.63;;;-146.31;70.37
2036;BME280;23642;42.658;23.350;2024-02-16T08:49:23;50302.44;;;-146.31;71.02
2036;BME280;23642;42.658;23.350;2024-02-16T08:51:51;50279.75;;;-146.31;69.72
2036;BME280;23642;42.658;23.350;2024-02-16T08:54:19;50296.25;;;-146.31;70.01
2036;BME280;23642;42.658;23.350;2024-02-16T08:57:02;50300.38;;;-146.31;69.73
2036;BME280;23642;42.658;23.350;2024-02-16T08:59:31;50345.75;;;-146.31;69.40
2036;BME280;23642;42.658;23.350;2024-02-16T09:01:59;50349.88;;;-146.31;69.20
2036;BME280;23642;42.658;23.350;2024-02-16T09:04:26;50380.81;;;-146.31;68.88
2036;BME280;23642;42.658;23.350;2024-02-16T09:06:53;50347.81;;;-146.31;68.95
2036;BME280;23642;42.658;23.350;2024-02-16T09:09:21;50376.69;;;-146.31;69.04
2036;BME280;23642;42.658;23.350;2024-02-16T09:11:48;50391.13;;;-146.31;69.23
2036;BME280;23642;42.658;23.350;2024-02-16T09:14:14;50436.50;;;-146.31;68.26
2036;BME280;23642;42.658;23.350;2024-02-16T09:16:41;50407.63;;;-146.31;67.80
2036;BME280;23642;42.658;23.350;2024-02-16T09:19:17;50428.25;;;-146.31;67.39
2036;BME280;23642;42.658;23.350;2024-02-16T09:21:45;50473.63;;;-146.31;66.20
2036;BME280;23642;42.658;23.350;2024-02-16T09:24:11;50481.88;;;-146.31;66.90
2036;BME280;23642;42.658;23.350;2024-02-16T09:26:44;50488.06;;;-146.31;66.34
2036;BME280;23642;42.658;23.350;2024-02-16T09:29:12;50537.56;;;-146.31;65.44
2036;BME280;23642;42.658;23.350;2024-02-16T09:31:39;50556.13;;;-146.31;64.96
2036;BME280;23642;42.658;23.350;2024-02-16T09:34:06;50562.31;;;-146.31;65.30
2036;BME280;23642;42.658;23.350;2024-02-16T09:36:33;50531.38;;;-146.31;65.20
2036;BME280;23642;42.658;23.350;2024-02-16T09:39:01;50580.88;;;-146.31;63.96
2036;BME280;23642;42.658;23.350;2024-02-16T09:44:20;50603.56;;;-146.31;63.74
2036;BME280;23642;42.658;23.350;2024-02-16T09:46:47;50638.63;;;-146.31;63.30
2036;BME280;23642;42.658;23.350;2024-02-16T09:49:15;50620.06;;;-146.31;63.65
2036;BME280;23642;42.658;23.350;2024-02-16T09:51:42;50640.69;;;-146.31;64.02
2036;BME280;23642;42.658;23.350;2024-02-16T09:54:09;50636.56;;;-146.31;63.81
2036;BME280;23642;42.658;23.350;2024-02-16T09:56:37;50620.06;;;-146.31;64.09
2036;BME280;23642;42.658;23.350;2024-02-16T09:59:03;50618.00;;;-146.31;63.59
2036;BME280;23642;42.658;23.350;2024-02-16T10:01:31;50657.19;;;-146.31;62.23
2036;BME280;23642;42.658;23.350;2024-02-16T10:06:46;50702.56;;;-146.31;62.74
2036;BME280;23642;42.658;23.350;2024-02-16T10:09:22;50704.63;;;-146.31;61.76
2036;BME280;23642;42.658;23.350;2024-02-16T10:11:49;50727.31;;;-146.31;63.92
2036;BME280;23642;42.658;23.350;2024-02-16T10:14:16;50690.19;;;-146.31;64.30
2036;BME280;23642;42.658;23.350;2024-02-16T10:16:46;50665.44;;;-146.31;64.10
2036;BME280;23642;42.658;23.350;2024-02-16T10:19:13;50684.00;;;-146.31;62.54
2036;BME280;23642;42.658;23.350;2024-02-16T10:21:40;50671.63;;;-146.31;62.71
2036;BME280;23642;42.658;23.350;2024-02-16T10:24:09;50696.38;;;-146.31;62.13
2036;BME280;23642;42.658;23.350;2024-02-16T10:29:51;50717.00;;;-146.31;60.73
2036;BME280;23642;42.658;23.350;2024-02-16T10:32:22;50735.56;;;-146.31;60.27
2036;BME280;23642;42.658;23.350;2024-02-16T10:34:48;50774.75;;;-146.31;59.60
2036;BME280;23642;42.658;23.350;2024-02-16T10:37:16;50828.38;;;-146.31;58.73
2036;BME280;23642;42.658;23.350;2024-02-16T10:39:44;50836.63;;;-146.31;60.05
2036;BME280;23642;42.658;23.350;2024-02-16T10:42:13;50849.00;;;-146.31;60.75
2036;BME280;23642;42.658;23.350;2024-02-16T10:44:41;50832.50;;;-146.31;60.23
2036;BME280;23642;42.658;23.350;2024-02-16T10:47:09;50844.88;;;-146.31;59.23
2036;BME280;23642;42.658;23.350;2024-02-16T10:53:03;50869.63;;;-146.31;59.01
2036;BME280;23642;42.658;23.350;2024-02-16T10:55:31;50853.13;;;-146.31;58.96
2036;BME280;23642;42.658;23.350;2024-02-16T10:57:58;50873.75;;;-146.31;59.08
2036;BME280;23642;42.658;23.350;2024-02-16T11:00:27;50865.50;;;-146.31;58.91
2036;BME280;23642;42.658;23.350;2024-02-16T11:02:54;50898.50;;;-146.31;58.61
2036;BME280;23642;42.658;23.350;2024-02-16T11:05:34;50927.38;;;-146.31;58.67
2036;BME280;23642;42.658;23.350;2024-02-16T11:08:11;50927.38;;;-146.31;58.77
2036;BME280;23642;42.658;23.350;2024-02-16T11:10:38;50923.25;;;-146.31;57.59
2036;BME280;23642;42.658;23.350;2024-02-16T11:13:05;50939.75;;;-146.31;58.11
2036;BME280;23642;42.658;23.350;2024-02-16T11:15:33;50919.13;;;-146.31;57.83
2036;BME280;23642;42.658;23.350;2024-02-16T11:18:02;50931.50;;;-146.31;58.69
2036;BME280;23642;42.658;23.350;2024-02-16T11:20:36;50952.13;;;-146.31;58.24
2036;BME280;23642;42.658;23.350;2024-02-16T11:23:09;50927.38;;;-146.31;57.82
2036;BME280;23642;42.658;23.350;2024-02-16T11:25:36;50958.31;;;-146.31;57.09
2036;BME280;23642;42.658;23.350;2024-02-16T11:28:04;50948.00;;;-146.31;56.95
2036;BME280;23642;42.658;23.350;2024-02-16T11:30:32;50929.44;;;-146.31;56.98
2036;BME280;23642;42.658;23.350;2024-02-16T11:33:00;50943.88;;;-146.31;57.27
2036;BME280;23642;42.658;23.350;2024-02-16T11:35:27;50935.63;;;-146.31;56.60
2036;BME280;23642;42.658;23.350;2024-02-16T11:37:55;50937.69;;;-146.31;55.43
2036;BME280;23642;42.658;23.350;2024-02-16T11:40:24;50956.25;;;-146.31;55.06
2036;BME280;23642;42.658;23.350;2024-02-16T11:42:58;50958.31;;;-146.31;55.20
2036;BME280;23642;42.658;23.350;2024-02-16T11:45:24;50952.13;;;-146.31;54.76
2036;BME280;23642;42.658;23.350;2024-02-16T11:48:02;50978.94;;;-146.31;54.93
2036;BME280;23642;42.658;23.350;2024-02-16T11:50:28;50997.50;;;-146.31;55.06
2036;BME280;23642;42.658;23.350;2024-02-16T11:52:56;50966.56;;;-146.31;55.24
2036;BME280;23642;42.658;23.350;2024-02-16T11:55:24;50995.44;;;-146.31;54.61
2036;BME280;23642;42.658;23.350;2024-02-16T11:57:53;50954.19;;;-146.31;54.61
2036;BME280;23642;42.658;23.350;2024-02-16T12:00:22;50985.13;;;-146.31;54.58
2036;BME280;23642;42.658;23.350;2024-02-16T12:06:06;51014.00;;;-146.31;53.94
2036;BME280;23642;42.658;23.350;2024-02-16T12:08:34;51042.88;;;-146.31;53.33
2036;BME280;23642;42.658;23.350;2024-02-16T12:11:04;51055.25;;;-146.31;54.33
2036;BME280;23642;42.658;23.350;2024-02-16T12:13:31;50997.50;;;-146.31;54.23
2036;BME280;23642;42.658;23.350;2024-02-16T12:15:58;51018.13;;;-146.31;54.43
2036;BME280;23642;42.658;23.350;2024-02-16T12:18:26;51026.38;;;-146.31;53.04
2036;BME280;23642;42.658;23.350;2024-02-16T12:20:57;51051.13;;;-146.31;52.66
2036;BME280;23642;42.658;23.350;2024-02-16T12:23:24;51049.06;;;-146.31;52.97
2036;BME280;23642;42.658;23.350;2024-02-16T12:25:51;51042.88;;;-146.31;53.36
2036;BME280;23642;42.658;23.350;2024-02-16T12:28:23;51049.06;;;-146.31;52.93
2036;BME280;23642;42.658;23.350;2024-02-16T12:30:50;50991.31;;;-146.31;52.70
2036;BME280;23642;42.658;23.350;2024-02-16T12:33:17;51009.88;;;-146.31;51.81
2036;BME280;23642;42.658;23.350;2024-02-16T12:35:44;51071.75;;;-146.31;52.13
2036;BME280;23642;42.658;23.350;2024-02-16T12:38:11;51069.69;;;-146.31;52.46
2036;BME280;23642;42.658;23.350;2024-02-16T12:40:40;51090.34;;;-146.31;52.06
2036;BME280;23642;42.658;23.350;2024-02-16T12:43:07;51117.16;;;-146.31;52.16
2036;BME280;23642;42.658;23.350;2024-02-16T12:45:37;51133.66;;;-146.31;52.51
2036;BME280;23642;42.658;23.350;2024-02-16T12:51:10;51133.66;;;-146.31;53.06
2036;BME280;23642;42.658;23.350;2024-02-16T12:53:38;51158.41;;;-146.31;52.40
2036;BME280;23642;42.658;23.350;2024-02-16T12:56:07;51164.59;;;-146.31;52.87
2036;BME280;23642;42.658;23.350;2024-02-16T12:58:35;51117.16;;;-146.31;52.98